Time;durP1;ratioP1;P1;durP2;ratioP2;P2;SDS_P1;SDS_P2;PMS_P1;PMS_P2;Temp;Humidity;BMP_temperature;BMP_pressure;BME280_temperature;BME280_humidity;BME280_pressure;Samples;Min_cycle;Max_cycle;Signal;HPM_P1;HPM_P2
2022/06/06 00:01:18;;;;;;;3.30;2.67;;;16.10;99.90;;;;;;5013436;28;20660;-73
2022/06/06 00:03:46;;;;;;;4.33;2.73;;;16.10;99.90;;;;;;5010990;28;20251;-74
2022/06/06 00:06:16;;;;;;;5.13;3.33;;;16.00;99.90;;;;;;5013193;28;20222;-74
2022/06/06 00:08:42;;;;;;;4.87;3.30;;;16.00;99.90;;;;;;5013092;28;20201;-74
2022/06/06 00:11:09;;;;;;;3.67;3.10;;;16.00;99.90;;;;;;5012935;28;20193;-74
2022/06/06 00:13:39;;;;;;;5.60;3.67;;;16.00;99.90;;;;;;5011580;28;20204;-73
2022/06/06 00:16:07;;;;;;;4.47;3.87;;;16.00;99.90;;;;;;5012872;28;20270;-74
2022/06/06 00:18:34;;;;;;;6.37;3.90;;;16.00;99.90;;;;;;5013249;28;20204;-74
2022/06/06 00:21:01;;;;;;;7.50;4.10;;;16.10;99.90;;;;;;5006378;28;20742;-74
2022/06/06 00:23:28;;;;;;;4.67;4.17;;;16.10;99.90;;;;;;5012867;28;20224;-74
2022/06/06 00:25:56;;;;;;;12.33;4.43;;;16.20;99.90;;;;;;5012803;28;20267;-73
2022/06/06 00:28:23;;;;;;;4.60;4.00;;;16.10;99.90;;;;;;4995453;28;20215;-74
2022/06/06 00:30:56;;;;;;;6.13;4.93;;;16.00;99.90;;;;;;5008094;28;20211;-74
2022/06/06 00:36:10;;;;;;;6.50;4.70;;;15.90;99.90;;;;;;5012845;28;20719;-74
2022/06/06 00:38:36;;;;;;;7.30;5.40;;;15.90;99.90;;;;;;5011157;28;20247;-73
2022/06/06 00:41:03;;;;;;;8.73;4.87;;;15.80;99.90;;;;;;5013014;28;20207;-74
2022/06/06 00:43:30;;;;;;;7.13;5.50;;;15.80;99.90;;;;;;5012820;28;20220;-73
2022/06/06 00:45:58;;;;;;;8.70;5.23;;;15.80;99.90;;;;;;5012654;28;20262;-74
2022/06/06 00:48:33;;;;;;;6.63;4.40;;;15.80;99.90;;;;;;5008627;28;20732;-73
2022/06/06 00:51:12;;;;;;;9.37;4.67;;;15.90;99.90;;;;;;5012649;28;20626;-74
2022/06/06 00:53:44;;;;;;;6.13;4.70;;;16.00;99.90;;;;;;5012085;28;20671;-74
2022/06/06 00:56:14;;;;;;;6.93;4.50;;;15.90;99.90;;;;;;5009438;28;20224;-74
2022/06/06 00:58:42;;;;;;;5.87;5.00;;;15.80;99.90;;;;;;5009848;28;20254;-74
2022/06/06 01:01:09;;;;;;;6.83;4.93;;;15.70;99.90;;;;;;5012916;28;20210;-74
2022/06/06 01:03:38;;;;;;;6.13;5.07;;;15.80;99.90;;;;;;4994576;28;20256;-73
2022/06/06 01:06:07;;;;;;;7.17;4.90;;;15.70;99.90;;;;;;5009925;28;20208;-73
2022/06/06 01:08:39;;;;;;;7.50;5.10;;;15.60;99.90;;;;;;5012055;28;20703;-74
2022/06/06 01:11:06;;;;;;;6.73;4.70;;;15.50;99.90;;;;;;5006082;28;20200;-74
2022/06/06 01:13:34;;;;;;;5.43;4.67;;;15.70;99.90;;;;;;5005056;28;20656;-74
2022/06/06 01:16:21;;;;;;;6.23;4.67;;;15.80;99.90;;;;;;5004990;28;20224;-74
2022/06/06 01:19:15;;;;;;;9.57;4.73;;;15.80;99.90;;;;;;5012097;28;20491;-74
2022/06/06 01:22:18;;;;;;;4.63;3.70;;;15.60;99.90;;;;;;5009828;28;20352;-74
2022/06/06 01:25:09;;;;;;;6.13;4.40;;;15.50;99.90;;;;;;4998127;28;20197;-74
2022/06/06 01:28:00;;;;;;;6.30;4.67;;;15.40;99.90;;;;;;5007859;28;20211;-72
2022/06/06 01:30:41;;;;;;;6.03;4.50;;;15.40;99.90;;;;;;5010810;28;20216;-74
2022/06/06 01:33:11;;;;;;;6.43;4.37;;;15.40;99.90;;;;;;4995276;28;20196;-75
2022/06/06 01:35:41;;;;;;;9.27;5.00;;;15.40;99.90;;;;;;4995098;28;20267;-74
2022/06/06 01:38:10;;;;;;;8.77;5.00;;;15.30;99.90;;;;;;4993166;28;20569;-74
2022/06/06 01:40:50;;;;;;;5.90;4.70;;;15.40;99.90;;;;;;4996617;28;20205;-73
2022/06/06 01:43:22;;;;;;;5.33;4.30;;;15.30;99.90;;;;;;4993760;28;20220;-75
2022/06/06 01:45:58;;;;;;;7.13;5.20;;;15.30;99.90;;;;;;4994171;28;20286;-74
2022/06/06 01:48:32;;;;;;;9.03;5.27;;;15.20;99.90;;;;;;4993868;28;20208;-73
2022/06/06 01:51:06;;;;;;;6.57;4.63;;;15.20;99.90;;;;;;4993300;28;20255;-73
2022/06/06 01:53:36;;;;;;;6.83;5.07;;;15.20;99.90;;;;;;4993711;28;20197;-73
2022/06/06 01:56:04;;;;;;;8.73;5.90;;;15.30;99.90;;;;;;4992856;28;20217;-73
2022/06/06 01:58:32;;;;;;;8.13;5.53;;;15.40;99.90;;;;;;4993074;28;20220;-73
2022/06/06 02:00:59;;;;;;;6.70;5.37;;;15.20;99.90;;;;;;4992893;28;20212;-73
2022/06/06 02:03:26;;;;;;;8.00;5.10;;;15.30;99.90;;;;;;4993148;28;20248;-73
2022/06/06 02:05:53;;;;;;;6.33;5.13;;;15.20;99.90;;;;;;4993131;28;20212;-73
2022/06/06 02:08:20;;;;;;;7.57;5.50;;;15.10;99.90;;;;;;4992812;28;20197;-74
2022/06/06 02:10:47;;;;;;;7.47;5.27;;;15.00;99.90;;;;;;4993257;28;20209;-73
2022/06/06 02:13:14;;;;;;;7.77;5.60;;;15.10;99.90;;;;;;4992985;28;20193;-74
2022/06/06 02:15:41;;;;;;;8.60;6.27;;;15.20;99.90;;;;;;4992674;28;20251;-74
2022/06/06 02:18:08;;;;;;;7.07;5.63;;;15.20;99.90;;;;;;4992674;28;20285;-74
2022/06/06 02:20:35;;;;;;;8.07;5.67;;;15.20;99.90;;;;;;5000512;28;20200;-73
2022/06/06 02:23:02;;;;;;;9.07;5.90;;;15.20;99.90;;;;;;4992317;28;20264;-73
2022/06/06 02:25:31;;;;;;;8.67;6.13;;;15.10;99.90;;;;;;4992010;28;20223;-73
2022/06/06 02:27:58;;;;;;;8.83;5.73;;;15.00;99.90;;;;;;4992483;28;20193;-73
2022/06/06 02:30:28;;;;;;;7.77;5.87;;;14.90;99.90;;;;;;4992142;28;20216;-73
2022/06/06 02:32:55;;;;;;;7.97;5.70;;;14.80;99.90;;;;;;4992354;28;20628;-73
2022/06/06 02:35:25;;;;;;;8.30;6.40;;;14.80;99.90;;;;;;4999500;28;20228;-73
2022/06/06 02:37:56;;;;;;;8.13;6.40;;;14.80;99.90;;;;;;5000592;28;20200;-73
2022/06/06 02:40:25;;;;;;;8.33;6.47;;;14.80;99.90;;;;;;4992286;28;20673;-72
2022/06/06 02:42:52;;;;;;;8.63;6.40;;;14.80;99.90;;;;;;4992321;28;20629;-73
2022/06/06 02:45:19;;;;;;;10.07;6.70;;;14.80;99.90;;;;;;4991616;28;20704;-73
2022/06/06 02:47:48;;;;;;;9.67;6.33;;;14.80;99.90;;;;;;4992053;28;20567;-73
2022/06/06 02:50:19;;;;;;;10.33;6.60;;;14.80;99.90;;;;;;4991582;28;20198;-73
2022/06/06 02:52:45;;;;;;;9.33;6.30;;;14.70;99.90;;;;;;4991791;28;20200;-73
2022/06/06 02:55:14;;;;;;;9.70;7.00;;;14.70;99.90;;;;;;4991450;28;20220;-73
2022/06/06 02:57:44;;;;;;;12.20;7.53;;;14.70;99.90;;;;;;4991792;28;20201;-73
2022/06/06 03:00:14;;;;;;;11.43;6.80;;;14.60;99.90;;;;;;4991472;28;20197;-73
2022/06/06 03:02:40;;;;;;;14.20;7.80;;;14.70;99.90;;;;;;4976560;28;20203;-73
2022/06/06 03:05:09;;;;;;;10.43;7.40;;;14.70;99.90;;;;;;4991054;28;20213;-73
2022/06/06 03:07:57;;;;;;;10.97;7.33;;;14.80;99.90;;;;;;4991275;28;20669;-73
2022/06/06 03:10:34;;;;;;;11.70;6.73;;;14.80;99.90;;;;;;4996934;28;20196;-73
2022/06/06 03:13:35;;;;;;;14.67;7.93;;;14.80;99.90;;;;;;4973841;28;20196;-73
2022/06/06 03:22:52;;;;;;;14.17;8.43;;;14.60;99.90;;;;;;4947624;28;20576;-73
2022/06/06 03:25:30;;;;;;;13.53;8.67;;;14.70;99.90;;;;;;4949127;28;20277;-73
2022/06/06 03:28:48;;;;;;;15.27;9.07;;;14.70;99.90;;;;;;4982124;28;20384;-73
2022/06/06 03:31:38;;;;;;;15.00;8.57;;;14.80;99.90;;;;;;4962057;28;20288;-73
2022/06/06 03:34:08;;;;;;;18.00;9.90;;;14.80;99.90;;;;;;4990299;28;20224;-73
2022/06/06 03:36:46;;;;;;;16.43;9.33;;;14.80;99.90;;;;;;4990217;28;20275;-73
2022/06/06 03:39:36;;;;;;;15.20;9.40;;;14.90;99.90;;;;;;4990556;28;20197;-73
2022/06/06 03:42:21;;;;;;;16.23;9.00;;;14.90;99.90;;;;;;5000014;28;20193;-73
2022/06/06 03:45:02;;;;;;;15.90;9.00;;;14.90;99.90;;;;;;5009566;28;20227;-73
2022/06/06 03:47:34;;;;;;;17.37;8.77;;;14.90;99.90;;;;;;5009952;28;20200;-73
2022/06/06 03:50:10;;;;;;;18.63;9.90;;;14.90;99.90;;;;;;4996999;28;20203;-73
2022/06/06 03:52:46;;;;;;;19.73;9.73;;;15.00;99.90;;;;;;5009178;28;20200;-71
2022/06/06 03:55:27;;;;;;;16.87;9.60;;;15.20;99.90;;;;;;5009567;28;20692;-73
2022/06/06 03:57:56;;;;;;;18.00;10.17;;;15.30;99.90;;;;;;5006885;28;20668;-74
2022/06/06 04:00:24;;;;;;;14.10;8.90;;;15.50;99.90;;;;;;5004435;28;20204;-74
2022/06/06 04:02:53;;;;;;;14.83;9.07;;;15.60;99.90;;;;;;5008931;28;20216;-73
2022/06/06 04:05:22;;;;;;;14.30;8.87;;;15.60;99.90;;;;;;5008844;28;20712;-73
2022/06/06 04:07:49;;;;;;;14.47;8.83;;;15.80;99.90;;;;;;5006505;28;20635;-73
2022/06/06 04:10:17;;;;;;;16.60;9.47;;;15.90;99.90;;;;;;5009522;28;20266;-73
2022/06/06 04:13:24;;;;;;;16.03;9.10;;;16.20;99.90;;;;;;5008848;28;20228;-73
2022/06/06 04:16:42;;;;;;;13.20;8.40;;;16.40;99.90;;;;;;5009277;28;20239;-72
2022/06/06 04:19:34;;;;;;;16.53;10.50;;;16.50;99.90;;;;;;4975139;28;20193;-72
2022/06/06 04:22:10;;;;;;;16.57;8.90;;;16.80;99.90;;;;;;5008810;28;20220;-72
2022/06/06 04:25:14;;;;;;;18.50;9.23;;;16.90;99.90;;;;;;5011809;28;20876;-72
2022/06/06 04:28:14;;;;;;;13.60;8.93;;;17.00;99.90;;;;;;5008994;28;20199;-73
2022/06/06 04:30:59;;;;;;;9.40;7.13;;;17.20;99.90;;;;;;5011568;28;20211;-72
2022/06/06 04:33:38;;;;;;;15.80;8.50;;;17.20;99.90;;;;;;4994879;28;20199;-72
2022/06/06 04:36:28;;;;;;;11.73;7.70;;;17.30;99.90;;;;;;4986734;28;20248;-72
2022/06/06 04:39:20;;;;;;;12.90;7.57;;;17.40;99.90;;;;;;4993922;28;20656;-72
2022/06/06 04:42:15;;;;;;;9.73;6.73;;;17.50;99.90;;;;;;5011239;28;20208;-73
2022/06/06 04:44:48;;;;;;;10.57;6.77;;;17.60;99.90;;;;;;4989647;28;20696;-72
2022/06/06 04:47:26;;;;;;;9.93;6.30;;;17.70;99.90;;;;;;5011945;28;20196;-72
2022/06/06 04:49:55;;;;;;;8.77;6.00;;;17.80;99.90;;;;;;5011496;28;20196;-72
2022/06/06 04:52:24;;;;;;;8.67;6.13;;;17.90;99.90;;;;;;5011863;28;20200;-72
2022/06/06 04:54:53;;;;;;;10.60;6.60;;;17.90;99.90;;;;;;5008675;28;20712;-72
2022/06/06 04:57:20;;;;;;;8.90;6.50;;;18.00;99.90;;;;;;5011389;28;20197;-73
2022/06/06 04:59:48;;;;;;;9.63;6.33;;;18.30;99.90;;;;;;5010686;28;20196;-72
2022/06/06 05:02:15;;;;;;;8.33;5.87;;;18.70;99.90;;;;;;5011119;28;20192;-72
2022/06/06 05:04:42;;;;;;;9.77;5.60;;;18.80;99.90;;;;;;5009843;28;20242;-72
2022/06/06 05:07:29;;;;;;;7.63;5.40;;;18.80;99.90;;;;;;5011004;28;20652;-73
2022/06/06 05:10:18;;;;;;;8.38;5.40;;;19.10;99.90;;;;;;5009949;28;20699;-72
2022/06/06 05:13:03;;;;;;;10.10;4.85;;;19.30;99.90;;;;;;4991767;28;20200;-72
2022/06/06 05:15:40;;;;;;;7.65;5.90;;;19.40;99.90;;;;;;4992951;28;20235;-73
2022/06/06 05:18:44;;;;;;;7.43;5.30;;;19.20;99.90;;;;;;5003375;28;20192;-72
2022/06/06 05:21:21;;;;;;;8.27;5.90;;;19.20;99.90;;;;;;4974212;28;20765;-73
2022/06/06 05:24:02;;;;;;;8.98;5.55;;;19.30;99.90;;;;;;5008310;28;20256;-72
2022/06/06 05:26:41;;;;;;;9.65;6.93;;;19.20;99.90;;;;;;5009855;28;20216;-72
2022/06/06 05:29:26;;;;;;;7.95;5.72;;;19.20;99.90;;;;;;5002878;28;20604;-72
2022/06/06 05:32:12;;;;;;;7.50;5.80;;;19.00;99.90;;;;;;5002141;28;20192;-73
2022/06/06 05:34:47;;;;;;;8.40;5.60;;;19.20;99.90;;;;;;5009051;28;20203;-74
2022/06/06 05:37:43;;;;;;;6.93;4.90;;;19.40;99.90;;;;;;5003815;28;20196;-73
2022/06/06 05:40:39;;;;;;;8.65;5.45;;;19.60;99.90;;;;;;4999205;28;20200;-71
2022/06/06 05:43:40;;;;;;;9.38;5.55;;;19.70;99.90;;;;;;5009402;28;20200;-73
2022/06/06 05:46:21;;;;;;;7.85;5.57;;;19.80;99.90;;;;;;5002386;28;20208;-73
2022/06/06 05:49:05;;;;;;;7.50;5.60;;;19.60;99.90;;;;;;4991027;28;20262;-73
2022/06/06 05:51:55;;;;;;;8.13;5.75;;;19.60;99.90;;;;;;5005490;28;20192;-73
2022/06/06 05:55:17;;;;;;;9.40;5.85;;;19.70;99.90;;;;;;5003719;28;20200;-73
2022/06/06 05:58:18;;;;;;;7.68;5.22;;;19.90;99.90;;;;;;4948053;29;20306;-71
2022/06/06 06:01:07;;;;;;;6.28;4.78;;;19.90;99.90;;;;;;5000107;28;20660;-72
2022/06/06 06:04:03;;;;;;;8.82;5.10;;;19.90;99.90;;;;;;5009478;28;20235;-73
2022/06/06 06:06:40;;;;;;;7.72;4.95;;;20.00;99.90;;;;;;5004799;28;20226;-73
2022/06/06 06:09:25;;;;;;;9.02;5.40;;;20.20;99.90;;;;;;5001849;28;20242;-74
2022/06/06 06:12:25;;;;;;;7.57;5.10;;;20.10;99.90;;;;;;5007601;28;20199;-73
2022/06/06 06:15:17;;;;;;;6.38;4.85;;;20.10;99.90;;;;;;5007069;28;20216;-73
2022/06/06 06:17:48;;;;;;;7.00;5.22;;;20.20;99.90;;;;;;5003586;28;20211;-73
2022/06/06 06:20:19;;;;;;;6.88;4.80;;;20.40;99.90;;;;;;5008774;28;20196;-73
2022/06/06 06:22:51;;;;;;;7.28;4.63;;;20.50;99.90;;;;;;5006977;28;20196;-73
2022/06/06 06:25:20;;;;;;;8.90;4.82;;;20.90;99.90;;;;;;5003751;28;20699;-73
2022/06/06 06:27:48;;;;;;;6.50;4.75;;;21.10;99.90;;;;;;5007093;28;20200;-73
2022/06/06 06:30:15;;;;;;;6.88;4.43;;;21.30;99.90;;;;;;4990834;28;20204;-73
2022/06/06 06:32:57;;;;;;;7.28;5.00;;;21.40;99.90;;;;;;5008129;28;20207;-73
2022/06/06 06:35:37;;;;;;;7.30;4.05;;;21.70;99.90;;;;;;5002590;28;20726;-73
2022/06/06 06:38:51;;;;;;;8.30;5.15;;;22.00;99.90;;;;;;4984977;28;20251;-73
2022/06/06 06:41:28;;;;;;;8.05;4.47;;;22.00;99.90;;;;;;4963427;28;20193;-73
2022/06/06 06:44:14;;;;;;;6.60;4.45;;;21.70;99.90;;;;;;4995079;28;20228;-73
2022/06/06 06:46:47;;;;;;;6.72;4.65;;;21.80;99.90;;;;;;5006273;28;20212;-73
2022/06/06 06:49:29;;;;;;;7.15;4.53;;;22.00;99.90;;;;;;5003195;28;20196;-74
2022/06/06 06:52:05;;;;;;;9.02;4.95;;;22.10;99.90;;;;;;5004322;28;20676;-73
2022/06/06 06:55:09;;;;;;;5.95;4.68;;;22.30;99.90;;;;;;5007362;28;20200;-73
2022/06/06 06:57:48;;;;;;;6.40;4.85;;;22.40;99.90;;;;;;5007658;28;20211;-72
2022/06/06 07:00:23;;;;;;;6.40;4.70;;;22.30;99.90;;;;;;4990826;28;20483;-74
2022/06/06 07:09:29;;;;;;;6.05;4.60;;;21.70;99.90;;;;;;5005591;28;20207;-72
2022/06/06 07:11:59;;;;;;;6.93;4.90;;;21.90;99.90;;;;;;5005375;28;20209;-72
2022/06/06 07:14:53;;;;;;;5.95;4.85;;;21.90;99.90;;;;;;4989522;28;20204;-73
2022/06/06 07:17:23;;;;;;;7.55;4.57;;;22.10;99.90;;;;;;5006854;28;20734;-73
2022/06/06 07:20:04;;;;;;;6.63;4.53;;;22.50;99.90;;;;;;5004791;28;20204;-73
2022/06/06 07:25:23;;;;;;;9.13;4.72;;;22.30;99.90;;;;;;5001114;28;20231;-74
2022/06/06 07:27:50;;;;;;;6.13;4.25;;;22.20;99.90;;;;;;4985675;28;20197;-73
2022/06/06 07:30:18;;;;;;;8.98;4.75;;;22.10;99.90;;;;;;5006423;28;20204;-73
2022/06/06 07:33:03;;;;;;;7.00;4.70;;;22.20;99.90;;;;;;5005452;28;20200;-74
2022/06/06 07:36:03;;;;;;;7.32;5.00;;;22.10;99.90;;;;;;4998123;28;20223;-73
2022/06/06 07:38:46;;;;;;;6.95;5.03;;;22.10;99.90;;;;;;5002773;28;20251;-73
2022/06/06 07:41:31;;;;;;;7.72;4.85;;;21.90;99.90;;;;;;5006247;28;20561;-73
2022/06/06 07:44:34;;;;;;;6.47;4.68;;;21.60;99.90;;;;;;5002331;28;20201;-74
2022/06/06 07:47:05;;;;;;;11.80;6.20;;;21.40;99.90;;;;;;5004360;28;20204;-73
2022/06/06 07:49:50;;;;;;;4.85;4.13;;;21.10;99.90;;;;;;5006198;28;20491;-74
2022/06/06 07:52:42;;;;;;;7.22;4.53;;;21.00;99.90;;;;;;5000051;28;20189;-74
2022/06/06 07:55:31;;;;;;;7.00;4.28;;;21.10;99.90;;;;;;5002297;28;20228;-74
2022/06/06 07:58:15;;;;;;;7.38;4.70;;;21.40;99.90;;;;;;5005440;28;20197;-74
2022/06/06 08:00:44;;;;;;;7.50;4.82;;;21.70;99.90;;;;;;5009069;28;20200;-74
2022/06/06 08:03:23;;;;;;;9.30;4.53;;;22.00;99.90;;;;;;5006746;28;20206;-74
2022/06/06 08:06:02;;;;;;;6.28;3.60;;;22.00;99.90;;;;;;5007218;28;20231;-74
2022/06/06 08:09:13;;;;;;;5.13;4.30;;;21.80;99.90;;;;;;4994078;28;20196;-74
2022/06/06 08:12:28;;;;;;;6.72;4.20;;;22.00;99.90;;;;;;4986898;28;20223;-74
2022/06/06 08:15:09;;;;;;;6.47;4.60;;;22.10;99.90;;;;;;4973880;28;20637;-74
2022/06/06 08:17:44;;;;;;;7.88;4.53;;;22.30;99.90;;;;;;5008806;28;20211;-72
2022/06/06 08:20:46;;;;;;;5.68;4.40;;;22.40;99.90;;;;;;5008292;28;20683;-73
2022/06/06 08:23:14;;;;;;;6.57;5.03;;;22.60;99.90;;;;;;4984427;28;20204;-74
2022/06/06 08:25:43;;;;;;;5.60;4.93;;;22.80;99.90;;;;;;5007516;28;20235;-74
2022/06/06 08:28:11;;;;;;;6.10;4.72;;;23.00;99.90;;;;;;5002357;28;20193;-74
2022/06/06 08:30:41;;;;;;;6.82;5.18;;;23.20;99.90;;;;;;5007787;28;20590;-74
2022/06/06 08:33:07;;;;;;;7.25;5.00;;;23.50;99.90;;;;;;5007428;28;20204;-74
2022/06/06 08:35:52;;;;;;;6.05;4.38;;;23.80;99.90;;;;;;5008150;28;20228;-74
2022/06/06 08:38:25;;;;;;;4.57;3.63;;;24.30;99.90;;;;;;5003076;28;20204;-74
2022/06/06 08:40:57;;;;;;;5.55;3.42;;;24.40;99.90;;;;;;5005873;28;20343;-74
2022/06/06 08:43:35;;;;;;;4.20;3.35;;;24.60;99.90;;;;;;5004466;28;20199;-74
2022/06/06 08:46:02;;;;;;;4.30;3.40;;;24.40;99.90;;;;;;5004267;28;20289;-74
2022/06/06 08:48:39;;;;;;;6.00;3.50;;;24.50;99.90;;;;;;5008979;28;20196;-74
2022/06/06 08:51:38;;;;;;;5.30;3.28;;;24.60;99.90;;;;;;5008075;28;20193;-73
2022/06/06 08:54:37;;;;;;;4.78;3.10;;;24.40;99.90;;;;;;5006052;28;20193;-74
2022/06/06 08:57:12;;;;;;;4.93;3.30;;;24.50;99.90;;;;;;5005198;28;20201;-74
2022/06/06 09:00:28;;;;;;;5.10;2.97;;;24.80;99.90;;;;;;4992180;28;20192;-74
2022/06/06 09:03:39;;;;;;;5.30;2.80;;;25.00;99.90;;;;;;4975865;28;20223;-74
2022/06/06 09:06:24;;;;;;;3.75;2.58;;;25.00;99.90;;;;;;4969015;28;20249;-74
2022/06/06 09:09:29;;;;;;;3.13;2.65;;;25.40;99.90;;;;;;5003659;28;20200;-74
2022/06/06 09:12:22;;;;;;;4.82;2.83;;;24.90;99.90;;;;;;5004328;28;20208;-74
2022/06/06 09:15:17;;;;;;;4.38;2.78;;;24.60;99.90;;;;;;5006409;28;20224;-74
2022/06/06 09:18:21;;;;;;;3.63;2.85;;;25.00;99.90;;;;;;5006034;28;20587;-73
2022/06/06 09:21:07;;;;;;;4.22;2.83;;;25.20;99.90;;;;;;4989547;28;20204;-73
2022/06/06 09:24:07;;;;;;;3.42;2.38;;;25.20;99.90;;;;;;5003344;28;20210;-74
2022/06/06 09:27:04;;;;;;;4.05;2.80;;;25.10;99.90;;;;;;5002800;28;20220;-73
2022/06/06 09:30:07;;;;;;;4.72;2.90;;;25.30;99.90;;;;;;5001712;28;20207;-74
2022/06/06 09:33:02;;;;;;;3.17;2.60;;;25.50;99.90;;;;;;5003181;28;20199;-74
2022/06/06 09:35:50;;;;;;;3.17;2.40;;;25.60;99.90;;;;;;4983994;28;20700;-74
2022/06/06 09:38:39;;;;;;;4.57;2.60;;;25.90;99.90;;;;;;5009855;28;20196;-74
2022/06/06 09:41:30;;;;;;;5.05;2.83;;;26.00;99.90;;;;;;5004304;28;20193;-73
2022/06/06 09:44:09;;;;;;;4.53;2.78;;;25.80;99.90;;;;;;5003269;28;20208;-74
2022/06/06 09:46:54;;;;;;;2.70;2.40;;;25.60;99.90;;;;;;5003375;28;20212;-73
2022/06/06 09:50:09;;;;;;;3.17;2.67;;;25.20;99.90;;;;;;5001000;28;20192;-74
2022/06/06 09:52:54;;;;;;;3.75;2.70;;;24.70;99.90;;;;;;5005130;28;20292;-73
2022/06/06 09:59:31;;;;;;;3.95;2.35;;;24.40;99.90;;;;;;5002604;28;20207;-74
2022/06/06 10:02:35;;;;;;;2.58;2.20;;;24.60;99.90;;;;;;4985487;28;20738;-73
2022/06/06 10:05:39;;;;;;;4.13;2.55;;;24.80;99.90;;;;;;4997134;28;20617;-74
2022/06/06 10:08:38;;;;;;;2.58;2.30;;;25.10;99.90;;;;;;5003177;28;20192;-74
2022/06/06 10:11:24;;;;;;;3.88;2.83;;;25.60;99.90;;;;;;5002960;28;20316;-74
2022/06/06 10:14:12;;;;;;;2.45;2.25;;;25.50;99.90;;;;;;5002738;28;20204;-74
2022/06/06 10:16:48;;;;;;;4.75;2.05;;;25.60;99.90;;;;;;5001335;28;20220;-74
2022/06/06 10:19:43;;;;;;;2.88;2.20;;;25.00;99.90;;;;;;4986499;28;20203;-73
2022/06/06 10:22:42;;;;;;;2.92;2.40;;;24.70;99.90;;;;;;5002636;28;20204;-74
2022/06/06 10:25:31;;;;;;;2.70;2.45;;;25.10;99.90;;;;;;5002252;28;20594;-74
2022/06/06 10:28:16;;;;;;;3.90;2.53;;;25.00;99.90;;;;;;5001387;28;20219;-74
2022/06/06 10:30:54;;;;;;;4.30;2.40;;;24.40;99.90;;;;;;5000128;28;20243;-74
2022/06/06 10:33:57;;;;;;;2.70;2.40;;;24.40;99.90;;;;;;5004058;28;20238;-73
2022/06/06 10:36:46;;;;;;;3.65;2.63;;;24.30;99.90;;;;;;5004003;28;20220;-73
2022/06/06 10:39:36;;;;;;;3.00;2.70;;;23.30;99.90;;;;;;5000838;28;20208;-74
2022/06/06 10:42:25;;;;;;;3.50;2.97;;;23.20;99.90;;;;;;5001432;28;20201;-73
2022/06/06 10:45:17;;;;;;;4.15;3.33;;;23.20;99.90;;;;;;5000519;28;20224;-73
2022/06/06 10:48:22;;;;;;;4.07;2.08;;;23.60;99.90;;;;;;5000463;28;20203;-74
2022/06/06 10:51:42;;;;;;;2.67;2.03;;;23.90;99.90;;;;;;5000425;28;20210;-74
2022/06/06 10:54:27;;;;;;;2.88;2.10;;;23.90;99.90;;;;;;5001573;28;20255;-74
2022/06/06 10:57:27;;;;;;;2.78;2.13;;;23.90;99.90;;;;;;5003407;28;20283;-73
2022/06/06 11:00:09;;;;;;;3.90;1.85;;;23.80;99.90;;;;;;5000731;28;20207;-73
2022/06/06 11:02:57;;;;;;;3.72;1.90;;;23.40;99.90;;;;;;5000664;28;20226;-72
2022/06/06 11:05:33;;;;;;;3.05;1.90;;;23.30;99.90;;;;;;4985823;28;20307;-74
2022/06/06 11:08:25;;;;;;;2.13;1.92;;;23.20;99.90;;;;;;4983165;28;20205;-73
2022/06/06 11:11:07;;;;;;;2.50;2.00;;;23.20;99.90;;;;;;5000388;28;20290;-74
2022/06/06 11:14:07;;;;;;;2.83;2.25;;;23.40;99.90;;;;;;5000071;28;20625;-74
2022/06/06 11:16:54;;;;;;;2.22;1.92;;;23.00;99.90;;;;;;4999539;28;20227;-75
2022/06/06 11:20:02;;;;;;;3.40;2.40;;;22.90;99.90;;;;;;5002868;28;20196;-74
2022/06/06 11:22:32;;;;;;;2.10;1.90;;;23.30;99.90;;;;;;4999196;28;20200;-74
2022/06/06 11:25:04;;;;;;;3.65;2.22;;;23.70;99.90;;;;;;4999862;28;20302;-74
2022/06/06 11:27:53;;;;;;;4.75;2.05;;;24.20;99.90;;;;;;4999538;28;20197;-75
2022/06/06 11:31:04;;;;;;;2.90;2.40;;;24.80;99.90;;;;;;5001856;28;20197;-74
2022/06/06 11:33:44;;;;;;;6.30;4.40;;;25.20;99.90;;;;;;4993574;28;20196;-74
2022/06/06 11:36:34;;;;;;;3.33;2.70;;;25.40;99.90;;;;;;5005319;28;20216;-74
2022/06/06 11:39:10;;;;;;;2.20;1.85;;;25.50;99.90;;;;;;5003216;28;20200;-75
2022/06/06 11:42:17;;;;;;;2.17;1.90;;;25.20;99.90;;;;;;5003223;28;20232;-74
2022/06/06 11:45:03;;;;;;;3.17;1.90;;;25.30;99.90;;;;;;5002740;28;20619;-74
2022/06/06 11:47:36;;;;;;;1.25;1.15;;;25.30;99.90;;;;;;5002395;28;20200;-74
2022/06/06 11:50:27;;;;;;;1.48;1.35;;;25.50;99.90;;;;;;5003550;28;20200;-74
2022/06/06 11:53:10;;;;;;;2.58;1.55;;;25.30;99.90;;;;;;5003993;28;20200;-75
2022/06/06 11:55:59;;;;;;;1.52;1.20;;;25.20;99.90;;;;;;4984283;28;20243;-75
2022/06/06 11:58:52;;;;;;;3.17;1.20;;;25.20;99.90;;;;;;5005952;28;20207;-75
2022/06/06 12:01:19;;;;;;;1.85;1.27;;;25.30;99.90;;;;;;5005133;28;20269;-75
2022/06/06 12:04:06;;;;;;;2.40;1.20;;;25.20;99.90;;;;;;5002392;28;20193;-75
2022/06/06 12:07:13;;;;;;;1.25;1.00;;;25.10;99.90;;;;;;5001550;28;20691;-74
2022/06/06 12:10:03;;;;;;;1.30;1.10;;;24.90;99.90;;;;;;4981512;28;20593;-74
2022/06/06 12:12:45;;;;;;;1.80;1.10;;;24.80;99.90;;;;;;4991196;28;20189;-74
2022/06/06 12:15:37;;;;;;;1.58;1.10;;;25.00;99.90;;;;;;4985707;28;20233;-74
2022/06/06 12:18:04;;;;;;;2.28;1.35;;;25.00;99.90;;;;;;5002294;28;20247;-73
2022/06/06 12:21:19;;;;;;;16.35;1.73;;;24.80;99.90;;;;;;5000495;28;20207;-73
2022/06/06 12:24:12;;;;;;;2.70;1.30;;;25.10;99.90;;;;;;4949798;28;20198;-74
2022/06/06 12:27:08;;;;;;;3.30;1.63;;;25.90;99.90;;;;;;4948676;29;20217;-74
2022/06/06 12:29:48;;;;;;;3.95;1.60;;;26.50;99.90;;;;;;4992601;28;20204;-74
2022/06/06 12:32:15;;;;;;;1.80;1.38;;;26.40;99.90;;;;;;5003193;28;20193;-75
2022/06/06 12:34:56;;;;;;;3.85;1.30;;;26.70;99.90;;;;;;5004383;28;20219;-74
2022/06/06 12:37:36;;;;;;;1.20;1.10;;;26.90;99.90;;;;;;5004561;28;20212;-75
2022/06/06 12:40:30;;;;;;;1.67;1.40;;;27.10;99.90;;;;;;5001424;28;20197;-74
2022/06/06 12:42:59;;;;;;;3.15;1.38;;;27.20;99.90;;;;;;5000597;28;20193;-73
2022/06/06 12:45:29;;;;;;;3.03;2.05;;;26.90;99.90;;;;;;5003383;28;20320;-74
2022/06/06 12:48:10;;;;;;;1.80;1.45;;;26.80;99.90;;;;;;4987408;28;20237;-75
2022/06/06 12:51:05;;;;;;;1.83;1.20;;;27.10;99.90;;;;;;5000905;28;20196;-74
2022/06/06 12:53:56;;;;;;;1.67;1.20;;;27.00;99.90;;;;;;5000364;28;20730;-74
2022/06/06 12:56:46;;;;;;;1.88;1.17;;;26.80;99.90;;;;;;5002461;28;20232;-73
2022/06/06 12:59:26;;;;;;;3.15;1.38;;;26.90;99.90;;;;;;5001562;28;20205;-75
2022/06/06 13:02:21;;;;;;;1.67;1.10;;;26.90;99.90;;;;;;5001729;28;20570;-74
2022/06/06 13:04:50;;;;;;;2.45;1.33;;;27.00;99.90;;;;;;4998135;28;20227;-75
2022/06/06 13:07:23;;;;;;;1.20;1.10;;;27.30;99.90;;;;;;5001813;28;20231;-74
2022/06/06 13:10:19;;;;;;;2.33;1.58;;;27.60;99.90;;;;;;4988793;28;20258;-74
2022/06/06 13:13:23;;;;;;;2.50;1.60;;;27.20;99.90;;;;;;5000310;28;20196;-75
2022/06/06 13:15:58;;;;;;;3.35;1.20;;;26.90;99.90;;;;;;5000232;28;20629;-74
2022/06/06 13:18:28;;;;;;;1.38;1.27;;;27.10;99.90;;;;;;5002416;28;20630;-74
2022/06/06 13:20:55;;;;;;;2.75;1.38;;;27.60;99.90;;;;;;4983408;28;20196;-74
2022/06/06 13:23:37;;;;;;;1.27;1.10;;;27.70;99.90;;;;;;4983995;28;20197;-75
2022/06/06 13:26:24;;;;;;;2.55;1.50;;;27.20;99.90;;;;;;4999717;28;20221;-74
2022/06/06 13:28:55;;;;;;;1.95;1.48;;;26.50;99.90;;;;;;5000045;28;20377;-75
2022/06/06 13:31:40;;;;;;;3.05;1.63;;;26.10;99.90;;;;;;5001159;28;20673;-74
2022/06/06 13:34:13;;;;;;;1.70;1.35;;;26.00;99.90;;;;;;5003958;28;20192;-74
2022/06/06 13:37:04;;;;;;;3.53;1.52;;;26.20;99.90;;;;;;4999392;28;20594;-74
2022/06/06 13:39:42;;;;;;;1.35;1.25;;;26.40;99.90;;;;;;4985245;28;20204;-74
2022/06/06 13:42:41;;;;;;;3.30;1.30;;;26.40;99.90;;;;;;4999361;28;20197;-72
2022/06/06 13:45:17;;;;;;;2.28;1.20;;;26.40;99.90;;;;;;4981623;28;20227;-75
2022/06/06 13:48:05;;;;;;;3.92;1.33;;;26.70;99.90;;;;;;4999748;28;20195;-75
2022/06/06 13:50:34;;;;;;;2.53;1.20;;;26.90;99.90;;;;;;5001868;28;20199;-74
2022/06/06 13:53:11;;;;;;;3.90;1.17;;;26.80;99.90;;;;;;5003933;28;20204;-75
2022/06/06 13:55:39;;;;;;;2.60;1.33;;;27.00;99.90;;;;;;4998301;28;20234;-74
2022/06/06 13:58:42;;;;;;;6.18;1.60;;;27.20;99.90;;;;;;5006135;28;20197;-74
2022/06/06 14:01:36;;;;;;;3.72;1.50;;;26.70;99.90;;;;;;4998636;28;20722;-75
2022/06/06 14:04:32;;;;;;;2.55;1.85;;;26.70;99.90;;;;;;4998637;28;20761;-74
2022/06/06 14:07:19;;;;;;;2.75;1.58;;;25.80;99.90;;;;;;4998356;28;20633;-75
2022/06/06 14:09:47;;;;;;;2.10;1.60;;;25.40;99.90;;;;;;4998670;28;20197;-75
2022/06/06 14:12:27;;;;;;;2.20;1.55;;;25.50;99.90;;;;;;5003590;28;20201;-74
2022/06/06 14:15:05;;;;;;;2.55;1.80;;;25.00;99.90;;;;;;4998817;28;20212;-75
2022/06/06 14:17:37;;;;;;;2.97;1.77;;;24.90;99.90;;;;;;5001014;28;20577;-74
2022/06/06 14:20:07;;;;;;;4.85;1.58;;;24.80;99.90;;;;;;4998457;28;20196;-74
2022/06/06 14:22:37;;;;;;;3.25;1.60;;;24.80;99.90;;;;;;4982990;28;20208;-74